createdAt,value
2022-09-25T00:02:01.050Z,92.02
2022-09-25T00:04:27.543Z,91.44
2022-09-25T00:06:53.987Z,90.76
2022-09-25T00:09:20.917Z,90.65
2022-09-25T00:11:47.365Z,90.72
2022-09-25T00:14:13.805Z,90.54
2022-09-25T00:16:40.316Z,90.83
2022-09-25T00:19:25.217Z,90.83
2022-09-25T00:21:52.883Z,90.63
2022-09-25T00:24:19.958Z,90.13
2022-09-25T00:26:46.464Z,90.15
2022-09-25T00:29:20.373Z,90.26
2022-09-25T00:31:46.812Z,90.09
2022-09-25T00:34:13.339Z,89.87
2022-09-25T00:36:39.911Z,90.28
2022-09-25T00:39:06.676Z,89.93
2022-09-25T00:41:33.246Z,89.63
2022-09-25T00:44:01.643Z,89.92
2022-09-25T00:46:38.916Z,90.34
2022-09-25T00:49:12.987Z,89.94
2022-09-25T00:52:02.124Z,89.82
2022-09-25T00:54:33.346Z,89.61
2022-09-25T00:57:04.822Z,89.19
2022-09-25T00:59:37.396Z,88.81
2022-09-25T01:02:04.442Z,88.69
2022-09-25T01:04:37.373Z,88.58
2022-09-25T01:07:04.139Z,88.39
2022-09-25T01:09:30.932Z,87.76
2022-09-25T01:11:57.357Z,86.88
2022-09-25T01:14:24.160Z,87.28
2022-09-25T01:16:55.907Z,87.16
2022-09-25T01:19:41.176Z,86.97
2022-09-25T01:22:21.075Z,86.65
2022-09-25T01:25:25.041Z,85.97
2022-09-25T01:28:10.092Z,86.15
2022-09-25T01:30:44.657Z,86.01
2022-09-25T01:33:18.517Z,86.05
2022-09-25T01:36:12.095Z,86.22
2022-09-25T01:38:44.883Z,86.62
2022-09-25T01:41:16.001Z,86.60
2022-09-25T01:44:00.312Z,86.85
2022-09-25T01:46:35.084Z,87.26
2022-09-25T01:49:26.552Z,87.61
2022-09-25T01:51:55.950Z,87.55
2022-09-25T01:54:29.838Z,88.50
2022-09-25T01:57:16.014Z,89.63
2022-09-25T01:59:54.229Z,89.12
2022-09-25T02:02:26.772Z,89.71
2022-09-25T02:05:05.751Z,89.48
2022-09-25T02:07:37.587Z,89.46
2022-09-25T02:10:10.595Z,89.45
2022-09-25T02:12:41.771Z,89.52
2022-09-25T02:15:13.746Z,90.25
2022-09-25T02:18:16.448Z,90.95
2022-09-25T02:20:50.383Z,91.15
2022-09-25T02:23:29.062Z,92.03
2022-09-25T02:25:59.957Z,91.99
2022-09-25T02:28:26.624Z,92.01
2022-09-25T02:30:56.730Z,92.99
2022-09-25T02:33:24.257Z,92.73
2022-09-25T02:35:50.745Z,92.67
2022-09-25T02:38:17.288Z,93.87
2022-09-25T02:40:53.371Z,93.04
2022-09-25T02:43:43.774Z,93.25
2022-09-25T02:46:43.341Z,94.02
2022-09-25T02:49:52.086Z,94.11
2022-09-25T02:52:57.178Z,94.01
2022-09-25T02:55:32.532Z,93.67
2022-09-25T02:58:08.352Z,93.07
2022-09-25T03:00:37.702Z,92.69
2022-09-25T03:03:07.394Z,93.02
2022-09-25T03:05:35.616Z,92.65
2022-09-25T03:08:21.374Z,92.70
2022-09-25T03:10:48.263Z,92.61
2022-09-25T03:13:16.938Z,92.68
2022-09-25T03:15:46.772Z,92.91
2022-09-25T03:18:14.601Z,92.43
2022-09-25T03:20:42.787Z,92.81
2022-09-25T03:23:09.220Z,92.59
2022-09-25T03:25:35.805Z,92.67
2022-09-25T03:28:02.970Z,92.99
2022-09-25T03:30:29.804Z,93.92
2022-09-25T03:32:56.395Z,93.72
2022-09-25T03:35:22.994Z,93.78
2022-09-25T03:37:49.639Z,94.04
2022-09-25T03:40:16.427Z,93.31
2022-09-25T03:42:43.176Z,93.34
2022-09-25T03:45:11.519Z,92.84
2022-09-25T03:47:38.344Z,93.14
2022-09-25T03:50:05.185Z,93.31
2022-09-25T03:52:31.895Z,93.27
2022-09-25T03:54:58.337Z,93.33
2022-09-25T03:57:25.872Z,92.97
2022-09-25T03:59:52.689Z,93.37
2022-09-25T04:02:19.618Z,93.61
2022-09-25T04:04:46.203Z,93.77
2022-09-25T04:07:12.821Z,93.87
2022-09-25T04:09:39.321Z,93.75
2022-09-25T04:12:08.839Z,93.67
2022-09-25T04:14:35.700Z,94.36
2022-09-25T04:17:02.169Z,93.43
2022-09-25T04:19:28.585Z,93.23
2022-09-25T04:21:55.033Z,93.25
2022-09-25T04:24:39.841Z,92.69
2022-09-25T04:27:06.394Z,93.25
2022-09-25T04:29:32.881Z,93.35
2022-09-25T04:32:17.811Z,92.79
2022-09-25T04:34:44.686Z,92.66
2022-09-25T04:37:12.075Z,92.62
2022-09-25T04:39:38.841Z,92.54
2022-09-25T04:42:05.349Z,92.63
2022-09-25T04:44:31.810Z,92.60
2022-09-25T04:46:58.249Z,92.32
2022-09-25T04:49:24.685Z,92.32
2022-09-25T04:51:51.119Z,92.16
2022-09-25T04:54:17.530Z,92.30
2022-09-25T04:56:44.197Z,92.25
2022-09-25T04:59:17.420Z,92.18
2022-09-25T05:01:43.940Z,92.25
2022-09-25T05:04:10.756Z,92.49
2022-09-25T05:06:37.393Z,92.53
2022-09-25T05:09:03.968Z,92.17
2022-09-25T05:11:30.394Z,92.40
2022-09-25T05:13:56.845Z,91.96
2022-09-25T05:16:28.909Z,92.07
2022-09-25T05:18:55.452Z,91.76
2022-09-25T05:21:22.130Z,92.06
2022-09-25T05:23:48.617Z,92.28
2022-09-25T05:26:15.055Z,92.11
2022-09-25T05:28:41.542Z,92.00
2022-09-25T05:31:08.052Z,91.89
2022-09-25T05:33:35.423Z,92.00
2022-09-25T05:36:03.406Z,91.83
2022-09-25T05:38:32.236Z,91.67
2022-09-25T05:41:06.730Z,91.65
2022-09-25T05:43:34.278Z,91.54
2022-09-25T05:46:01.482Z,91.49
2022-09-25T05:48:28.009Z,91.47
2022-09-25T05:50:55.974Z,91.53
2022-09-25T05:53:23.239Z,91.60
2022-09-25T05:55:58.253Z,91.92
2022-09-25T05:58:26.509Z,92.07
2022-09-25T06:00:52.971Z,91.91
2022-09-25T06:03:20.460Z,91.42
2022-09-25T06:05:47.858Z,91.29
2022-09-25T06:08:15.106Z,91.79
2022-09-25T06:10:42.405Z,91.96
2022-09-25T06:13:08.879Z,91.72
2022-09-25T06:15:37.834Z,91.38
2022-09-25T06:18:05.732Z,91.10
2022-09-25T06:20:32.589Z,90.90
2022-09-25T06:23:00.691Z,90.47
2022-09-25T06:25:30.321Z,90.30
2022-09-25T06:27:59.860Z,89.85
2022-09-25T06:30:28.526Z,87.65
2022-09-25T06:32:58.384Z,86.65
2022-09-25T06:35:24.886Z,85.86
2022-09-25T06:37:51.631Z,82.86
2022-09-25T06:40:18.848Z,82.50
2022-09-25T06:42:46.153Z,77.46
2022-09-25T06:45:12.717Z,78.06
2022-09-25T06:47:39.199Z,75.73
2022-09-25T06:50:06.474Z,77.79
2022-09-25T06:52:32.923Z,76.76
2022-09-25T06:54:59.374Z,76.35
2022-09-25T06:57:25.791Z,76.93
2022-09-25T06:59:52.253Z,76.03
2022-09-25T07:02:37.206Z,76.79
2022-09-25T07:05:04.022Z,76.14
2022-09-25T07:07:31.525Z,75.91
2022-09-25T07:09:57.991Z,76.20
2022-09-25T07:12:24.485Z,76.18
2022-09-25T07:14:50.925Z,74.55
2022-09-25T07:17:17.438Z,74.62
2022-09-25T07:19:43.875Z,73.20
2022-09-25T07:22:12.706Z,73.36
2022-09-25T07:24:39.195Z,75.47
2022-09-25T07:27:05.870Z,75.55
2022-09-25T07:29:32.331Z,75.42
2022-09-25T07:32:00.070Z,76.55
2022-09-25T07:34:26.497Z,75.53
2022-09-25T07:36:54.848Z,75.44
2022-09-25T07:39:21.297Z,73.79
2022-09-25T07:41:47.853Z,72.07
2022-09-25T07:44:36.321Z,74.73
2022-09-25T07:47:01.324Z,74.81
2022-09-25T07:49:28.965Z,74.09
2022-09-25T07:51:55.710Z,70.61
2022-09-25T07:54:22.170Z,72.15
2022-09-25T07:56:48.639Z,71.37
2022-09-25T07:59:15.106Z,66.66
2022-09-25T08:01:44.874Z,64.03
2022-09-25T08:04:12.917Z,63.60
2022-09-25T08:06:39.531Z,63.08
2022-09-25T08:09:10.364Z,63.09
2022-09-25T08:11:37.751Z,60.91
2022-09-25T08:14:04.307Z,56.45
2022-09-25T08:16:30.751Z,52.56
2022-09-25T08:18:57.208Z,55.02
2022-09-25T08:21:24.621Z,53.94
2022-09-25T08:23:53.048Z,56.11
2022-09-25T08:26:21.223Z,50.73
2022-09-25T08:28:47.861Z,52.52
2022-09-25T08:31:14.873Z,51.88
2022-09-25T08:33:46.519Z,49.52
2022-09-25T08:36:13.288Z,49.19
2022-09-25T08:38:39.749Z,51.42
2022-09-25T08:41:10.086Z,51.40
2022-09-25T08:43:50.037Z,52.33
2022-09-25T08:47:06.489Z,45.21
2022-09-25T08:49:41.658Z,46.49
2022-09-25T08:52:14.779Z,50.39
2022-09-25T08:54:43.535Z,46.55
2022-09-25T08:57:37.156Z,44.24
2022-09-25T09:00:18.029Z,46.17
2022-09-25T09:03:02.973Z,44.45
2022-09-25T09:05:34.910Z,44.14
2022-09-25T09:08:25.740Z,43.39
2022-09-25T09:10:57.650Z,46.89
2022-09-25T09:13:32.455Z,43.26
2022-09-25T09:16:09.747Z,43.56
2022-09-25T09:18:41.272Z,45.75
2022-09-25T09:21:22.726Z,42.77
2022-09-25T09:24:07.631Z,42.31
2022-09-25T09:26:43.516Z,44.62
2022-09-25T09:29:20.004Z,43.30
2022-09-25T09:32:15.357Z,43.49
2022-09-25T09:35:07.746Z,47.46
2022-09-25T09:37:52.673Z,46.38
2022-09-25T09:40:47.144Z,49.03
2022-09-25T09:43:31.269Z,43.58
2022-09-25T09:46:19.241Z,44.61
2022-09-25T09:49:24.903Z,42.78
2022-09-25T09:52:01.496Z,43.50
2022-09-25T09:54:42.432Z,43.55
2022-09-25T09:57:19.283Z,45.43
2022-09-25T10:00:05.889Z,44.80
2022-09-25T10:02:47.842Z,45.34
2022-09-25T10:05:33.788Z,45.75
2022-09-25T10:08:01.096Z,48.80
2022-09-25T10:10:41.377Z,45.33
2022-09-25T10:13:33.233Z,43.92
2022-09-25T10:16:06.592Z,45.19
2022-09-25T10:18:41.243Z,44.12
2022-09-25T10:21:16.412Z,44.40
2022-09-25T10:23:54.117Z,45.33
2022-09-25T10:26:38.063Z,43.10
2022-09-25T10:29:05.623Z,47.39
2022-09-25T10:31:39.840Z,43.06
2022-09-25T10:34:24.098Z,43.50
2022-09-25T10:36:52.854Z,43.24
2022-09-25T10:39:44.637Z,41.08
2022-09-25T10:43:01.494Z,40.11
2022-09-25T10:45:34.308Z,40.01
2022-09-25T10:48:19.917Z,42.09
2022-09-25T10:51:07.128Z,40.59
2022-09-25T10:53:34.834Z,40.16
2022-09-25T10:56:14.429Z,41.03
2022-09-25T10:58:47.778Z,40.83
2022-09-25T11:01:16.926Z,42.72
2022-09-25T11:03:56.518Z,41.11
2022-09-25T11:06:26.903Z,43.32
2022-09-25T11:09:05.419Z,44.42
2022-09-25T11:11:32.052Z,45.27
2022-09-25T11:14:03.311Z,46.17
2022-09-25T11:16:48.638Z,45.77
2022-09-25T11:19:22.375Z,47.44
2022-09-25T11:22:08.678Z,47.67
2022-09-25T11:24:48.253Z,49.28
2022-09-25T11:27:33.763Z,48.57
2022-09-25T11:30:13.272Z,48.54
2022-09-25T11:33:05.994Z,49.45
2022-09-25T11:36:03.422Z,46.63
2022-09-25T11:39:12.836Z,46.96
2022-09-25T11:41:56.119Z,44.98
2022-09-25T11:44:42.206Z,45.07
2022-09-25T11:47:28.182Z,43.65
2022-09-25T11:49:56.841Z,43.91
2022-09-25T11:52:32.538Z,44.25
2022-09-25T11:55:17.563Z,44.98
2022-09-25T11:58:14.552Z,43.13
2022-09-25T12:00:47.304Z,42.38
2022-09-25T12:03:22.839Z,43.40
2022-09-25T12:06:05.273Z,43.07
2022-09-25T12:08:41.473Z,42.82
2022-09-25T12:11:16.786Z,44.40
2022-09-25T12:14:03.746Z,42.24
2022-09-25T12:16:45.158Z,42.74
2022-09-25T12:19:11.631Z,41.84
2022-09-25T12:21:48.368Z,39.93
2022-09-25T12:24:32.024Z,40.69
2022-09-25T12:27:25.227Z,40.69
2022-09-25T12:30:08.349Z,40.19
2022-09-25T12:32:41.713Z,40.99
2022-09-25T12:35:21.424Z,41.48
2022-09-25T12:37:50.309Z,41.96
2022-09-25T12:40:29.296Z,41.77
2022-09-25T12:43:24.193Z,40.22
2022-09-25T12:45:57.077Z,39.94
2022-09-25T12:48:35.307Z,38.40
2022-09-25T12:51:09.517Z,40.42
2022-09-25T12:53:50.162Z,39.80
2022-09-25T12:56:24.205Z,38.97
2022-09-25T12:58:57.460Z,40.38
2022-09-25T13:01:46.499Z,40.64
2022-09-25T13:04:43.399Z,39.53
2022-09-25T13:07:36.963Z,39.28
2022-09-25T13:10:18.744Z,39.64
2022-09-25T13:12:47.010Z,41.60
2022-09-25T13:15:20.511Z,40.09
2022-09-25T13:17:47.070Z,41.11
2022-09-25T13:20:28.753Z,40.79
2022-09-25T13:23:25.892Z,41.06
2022-09-25T13:26:01.149Z,41.31
2022-09-25T13:28:33.623Z,43.46
2022-09-25T13:31:08.931Z,40.38
2022-09-25T13:33:46.092Z,40.10
2022-09-25T13:36:23.246Z,40.04
2022-09-25T13:39:18.653Z,38.78
2022-09-25T13:41:56.923Z,37.05
2022-09-25T13:44:42.101Z,36.44
2022-09-25T13:47:29.972Z,36.79
2022-09-25T13:50:11.476Z,36.50
2022-09-25T13:52:46.897Z,36.99
2022-09-25T13:55:13.294Z,37.04
2022-09-25T13:57:58.472Z,36.49
2022-09-25T14:00:27.052Z,37.86
2022-09-25T14:03:01.634Z,39.09
2022-09-25T14:05:36.047Z,38.05
2022-09-25T14:08:12.178Z,37.29
2022-09-25T14:10:45.079Z,38.08
2022-09-25T14:13:14.446Z,38.88
2022-09-25T14:15:43.085Z,38.27
2022-09-25T14:18:18.160Z,38.13
2022-09-25T14:20:48.904Z,39.78
2022-09-25T14:23:24.619Z,39.60
2022-09-25T14:26:17.376Z,39.63
2022-09-25T14:28:46.517Z,38.81
2022-09-25T14:31:40.381Z,37.80
2022-09-25T14:34:44.970Z,37.90
2022-09-25T14:37:36.172Z,37.16
2022-09-25T14:40:14.010Z,38.92
2022-09-25T14:42:56.456Z,36.89
2022-09-25T14:45:31.862Z,37.27
2022-09-25T14:48:00.827Z,38.61
2022-09-25T14:50:31.895Z,38.11
2022-09-25T14:53:04.799Z,38.04
2022-09-25T14:55:38.265Z,38.42
2022-09-25T14:58:09.972Z,38.44
2022-09-25T15:00:46.856Z,37.67
2022-09-25T15:03:19.124Z,38.61
2022-09-25T15:05:48.177Z,39.53
2022-09-25T15:08:34.699Z,38.46
2022-09-25T15:11:16.200Z,39.47
2022-09-25T15:13:43.665Z,41.18
2022-09-25T15:16:37.367Z,40.55
2022-09-25T15:19:28.255Z,41.73
2022-09-25T15:21:55.376Z,42.19
2022-09-25T15:24:27.784Z,42.68
2022-09-25T15:27:03.850Z,41.95
2022-09-25T15:29:38.499Z,42.57
2022-09-25T15:32:05.875Z,43.37
2022-09-25T15:34:33.078Z,42.70
2022-09-25T15:37:19.104Z,42.02
2022-09-25T15:39:45.565Z,43.65
2022-09-25T15:42:14.045Z,43.82
2022-09-25T15:44:41.030Z,43.86
2022-09-25T15:47:36.607Z,44.03
2022-09-25T15:50:06.207Z,44.33
2022-09-25T15:52:34.019Z,44.54
2022-09-25T15:55:03.012Z,44.54
2022-09-25T15:57:31.358Z,44.85
2022-09-25T16:00:17.534Z,44.36
2022-09-25T16:03:23.294Z,43.23
2022-09-25T16:05:51.718Z,44.21
2022-09-25T16:08:24.068Z,44.91
2022-09-25T16:11:04.671Z,45.50
2022-09-25T16:13:33.138Z,46.10
2022-09-25T16:16:00.691Z,46.45
2022-09-25T16:18:40.481Z,46.92
2022-09-25T16:21:20.946Z,47.04
2022-09-25T16:23:56.269Z,46.25
2022-09-25T16:26:25.554Z,45.66
2022-09-25T16:29:04.986Z,44.90
2022-09-25T16:31:35.325Z,45.10
2022-09-25T16:34:03.449Z,45.71
2022-09-25T16:36:39.832Z,46.24
2022-09-25T16:39:09.403Z,46.95
2022-09-25T16:41:37.733Z,47.27
2022-09-25T16:44:26.122Z,48.30
2022-09-25T16:46:52.600Z,49.45
2022-09-25T16:49:22.142Z,49.12
2022-09-25T16:51:50.975Z,49.75
2022-09-25T16:54:19.277Z,50.23
2022-09-25T16:56:48.186Z,49.92
2022-09-25T16:59:19.023Z,50.08
2022-09-25T17:01:47.138Z,50.25
2022-09-25T17:04:15.718Z,50.59
2022-09-25T17:06:47.435Z,50.70
2022-09-25T17:09:17.247Z,51.26
2022-09-25T17:11:46.057Z,51.89
2022-09-25T17:14:31.098Z,52.99
2022-09-25T17:16:57.904Z,52.00
2022-09-25T17:19:24.632Z,51.59
2022-09-25T17:21:53.234Z,53.22
2022-09-25T17:24:23.796Z,52.34
2022-09-25T17:26:51.981Z,52.45
2022-09-25T17:29:19.838Z,52.72
2022-09-25T17:31:46.586Z,53.19
2022-09-25T17:34:18.830Z,54.20
2022-09-25T17:36:45.810Z,53.32
2022-09-25T17:39:12.631Z,54.25
2022-09-25T17:41:39.906Z,53.84
2022-09-25T17:44:09.030Z,53.92
2022-09-25T17:46:36.231Z,54.47
2022-09-25T17:49:03.675Z,54.18
2022-09-25T17:51:30.545Z,54.39
2022-09-25T17:53:59.307Z,55.14
2022-09-25T17:56:29.441Z,56.07
2022-09-25T17:58:57.378Z,57.79
2022-09-25T18:01:27.683Z,58.72
2022-09-25T18:03:56.902Z,58.32
2022-09-25T18:06:24.948Z,59.76
2022-09-25T18:08:52.648Z,59.24
2022-09-25T18:11:19.877Z,59.49
2022-09-25T18:13:47.178Z,59.05
2022-09-25T18:16:20.097Z,60.09
2022-09-25T18:19:06.119Z,62.01
2022-09-25T18:21:51.585Z,60.82
2022-09-25T18:24:18.213Z,60.63
2022-09-25T18:26:45.481Z,61.45
2022-09-25T18:29:15.662Z,62.74
2022-09-25T18:31:42.774Z,63.21
2022-09-25T18:34:09.330Z,63.76
2022-09-25T18:36:35.801Z,65.03
2022-09-25T18:39:02.302Z,64.49
2022-09-25T18:41:28.803Z,62.87
2022-09-25T18:43:55.272Z,63.80
2022-09-25T18:46:21.891Z,63.18
2022-09-25T18:48:48.700Z,65.80
2022-09-25T18:51:15.850Z,66.43
2022-09-25T18:53:42.787Z,66.57
2022-09-25T18:56:09.592Z,64.39
2022-09-25T18:58:36.169Z,63.79
2022-09-25T19:01:02.727Z,64.25
2022-09-25T19:03:29.393Z,67.04
2022-09-25T19:06:01.359Z,65.93
2022-09-25T19:08:28.048Z,65.44
2022-09-25T19:10:54.542Z,67.57
2022-09-25T19:13:21.447Z,67.06
2022-09-25T19:15:47.979Z,69.50
2022-09-25T19:18:14.542Z,68.42
2022-09-25T19:20:49.207Z,69.28
2022-09-25T19:23:16.012Z,69.45
2022-09-25T19:26:02.644Z,67.76
2022-09-25T19:28:30.719Z,66.87
2022-09-25T19:30:58.184Z,67.08
2022-09-25T19:33:25.772Z,69.05
2022-09-25T19:35:59.709Z,68.99
2022-09-25T19:38:27.212Z,66.03
2022-09-25T19:40:53.735Z,66.87
2022-09-25T19:43:20.281Z,66.54
2022-09-25T19:45:54.670Z,69.91
2022-09-25T19:48:22.768Z,66.27
2022-09-25T19:50:49.967Z,67.19
2022-09-25T19:53:18.821Z,66.47
2022-09-25T19:55:51.591Z,67.14
2022-09-25T19:58:22.504Z,66.93
2022-09-25T20:00:51.277Z,68.16
2022-09-25T20:03:18.147Z,67.58
2022-09-25T20:05:45.473Z,68.47
2022-09-25T20:08:11.982Z,67.30
2022-09-25T20:10:38.532Z,68.75
2022-09-25T20:13:06.080Z,68.41
2022-09-25T20:15:33.761Z,68.72
2022-09-25T20:18:00.488Z,68.24
2022-09-25T20:20:29.334Z,69.91
2022-09-25T20:22:56.721Z,69.00
2022-09-25T20:25:23.432Z,69.85
2022-09-25T20:27:52.250Z,69.73
2022-09-25T20:30:19.308Z,69.37
2022-09-25T20:32:46.127Z,69.18
2022-09-25T20:35:13.493Z,69.10
2022-09-25T20:37:40.206Z,69.63
2022-09-25T20:40:07.063Z,69.95
2022-09-25T20:42:33.960Z,69.72
2022-09-25T20:45:00.547Z,69.84
2022-09-25T20:47:33.622Z,70.56
2022-09-25T20:50:01.037Z,70.07
2022-09-25T20:52:28.452Z,69.96
2022-09-25T20:54:56.401Z,71.37
2022-09-25T20:57:22.926Z,71.01
2022-09-25T20:59:49.472Z,71.97
2022-09-25T21:02:16.049Z,70.85
2022-09-25T21:04:44.841Z,70.82
2022-09-25T21:07:16.606Z,70.60
2022-09-25T21:09:43.566Z,73.71
2022-09-25T21:12:10.011Z,71.12
2022-09-25T21:14:37.061Z,73.43
2022-09-25T21:17:03.968Z,74.24
2022-09-25T21:19:31.755Z,74.45
2022-09-25T21:21:58.223Z,73.77
2022-09-25T21:24:24.669Z,76.99
2022-09-25T21:26:51.186Z,74.19
2022-09-25T21:29:18.165Z,75.05
2022-09-25T21:31:49.733Z,73.51
2022-09-25T21:34:17.089Z,76.06
2022-09-25T21:36:44.754Z,75.79
2022-09-25T21:39:11.673Z,76.53
2022-09-25T21:41:38.245Z,76.73
2022-09-25T21:44:11.396Z,77.15
2022-09-25T21:46:37.925Z,77.80
2022-09-25T21:49:06.272Z,76.99
2022-09-25T21:51:38.048Z,78.41
2022-09-25T21:54:07.580Z,79.50
2022-09-25T21:56:34.649Z,76.31
2022-09-25T21:59:08.457Z,79.28
2022-09-25T22:01:37.151Z,78.00
2022-09-25T22:04:05.071Z,79.34
2022-09-25T22:06:34.268Z,77.79
2022-09-25T22:09:05.363Z,80.15
2022-09-25T22:11:32.397Z,80.32
2022-09-25T22:14:00.368Z,79.38
2022-09-25T22:16:32.577Z,81.35
2022-09-25T22:19:02.223Z,77.26
2022-09-25T22:21:31.484Z,78.64
2022-09-25T22:23:58.905Z,79.95
2022-09-25T22:26:26.832Z,81.27
2022-09-25T22:28:53.596Z,79.88
2022-09-25T22:31:26.882Z,82.46
2022-09-25T22:33:58.467Z,83.78
2022-09-25T22:36:25.944Z,83.63
2022-09-25T22:38:52.410Z,82.08
2022-09-25T22:41:19.027Z,83.34
2022-09-25T22:43:50.493Z,84.59
2022-09-25T22:46:17.746Z,82.95
2022-09-25T22:48:44.309Z,84.50
2022-09-25T22:51:15.877Z,84.78
2022-09-25T22:53:42.945Z,83.99
2022-09-25T22:56:17.939Z,83.85
2022-09-25T22:58:49.826Z,85.24
2022-09-25T23:01:24.494Z,85.12
2022-09-25T23:03:56.247Z,84.97
2022-09-25T23:06:24.080Z,83.78
2022-09-25T23:08:55.670Z,84.47
2022-09-25T23:11:23.784Z,83.70
2022-09-25T23:13:57.120Z,83.56
2022-09-25T23:16:23.916Z,84.78
2022-09-25T23:18:50.415Z,85.03
2022-09-25T23:21:16.997Z,85.02
2022-09-25T23:23:43.568Z,83.40
2022-09-25T23:26:10.062Z,84.69
2022-09-25T23:28:38.607Z,84.89
2022-09-25T23:31:11.401Z,84.93
2022-09-25T23:33:39.575Z,85.55
2022-09-25T23:36:11.375Z,85.66
2022-09-25T23:38:38.368Z,84.48
2022-09-25T23:41:16.422Z,85.85
2022-09-25T23:43:43.590Z,86.16
2022-09-25T23:46:10.510Z,86.15
2022-09-25T23:48:37.101Z,87.37
2022-09-25T23:51:03.625Z,86.83
2022-09-25T23:53:30.186Z,87.79
2022-09-25T23:55:56.886Z,87.91
2022-09-25T23:58:23.373Z,88.16
